createdAt,value
2022-11-05T00:02:34.804Z,70.70
2022-11-05T00:05:23.195Z,73.10
2022-11-05T00:08:12.390Z,70.40
2022-11-05T00:10:41.115Z,70.00
2022-11-05T00:13:29.334Z,70.40
2022-11-05T00:16:17.510Z,70.30
2022-11-05T00:19:05.750Z,71.20
2022-11-05T00:21:53.826Z,70.50
2022-11-05T00:24:40.079Z,69.80
2022-11-05T00:27:09.614Z,69.70
2022-11-05T00:29:38.290Z,69.70
2022-11-05T00:32:06.896Z,70.00
2022-11-05T00:34:35.685Z,71.00
2022-11-05T00:37:05.443Z,72.50
2022-11-05T00:39:33.677Z,72.00
2022-11-05T00:42:19.614Z,71.70
2022-11-05T00:45:03.339Z,72.20
2022-11-05T00:47:50.131Z,70.20
2022-11-05T00:50:20.096Z,69.90
2022-11-05T00:53:00.678Z,69.90
2022-11-05T00:55:34.528Z,70.20
2022-11-05T00:58:04.785Z,70.20
2022-11-05T01:45:30.117Z,69.40
2022-11-05T01:48:08.037Z,69.70
2022-11-05T01:50:44.216Z,69.80
2022-11-05T01:53:26.682Z,69.40
2022-11-05T01:56:01.897Z,69.50
2022-11-05T01:58:35.445Z,69.50
2022-11-05T02:45:41.470Z,69.50
2022-11-05T02:48:22.316Z,69.70
2022-11-05T02:50:59.102Z,69.70
2022-11-05T02:53:39.785Z,69.70
2022-11-05T02:56:15.226Z,69.60
2022-11-05T02:58:43.346Z,69.70
2022-11-05T03:45:38.628Z,69.80
2022-11-05T03:48:10.532Z,70.00
2022-11-05T03:50:43.545Z,69.80
2022-11-05T03:53:17.532Z,69.70
2022-11-05T03:55:54.480Z,69.70
2022-11-05T03:58:24.588Z,69.70
2022-11-05T04:45:31.195Z,69.70
2022-11-05T04:47:59.602Z,69.90
2022-11-05T04:50:28.208Z,69.90
2022-11-05T04:53:00.410Z,70.40
2022-11-05T04:55:33.665Z,69.80
2022-11-05T04:58:05.864Z,69.70
2022-11-05T05:32:15.701Z,69.80
2022-11-05T05:34:43.848Z,69.90
2022-11-05T05:37:12.248Z,69.90
2022-11-05T05:39:40.610Z,69.90
2022-11-05T05:42:08.753Z,70.00
2022-11-05T05:44:36.959Z,70.00
2022-11-05T05:47:05.873Z,70.00
2022-11-05T05:49:35.580Z,69.80
2022-11-05T05:52:03.990Z,69.80
2022-11-05T05:54:35.999Z,69.90
2022-11-05T05:57:06.726Z,69.80
2022-11-05T05:59:35.072Z,69.80
2022-11-05T06:02:03.374Z,69.80
2022-11-05T06:04:31.904Z,69.90
2022-11-05T06:07:02.112Z,69.70
2022-11-05T06:09:30.960Z,69.70
2022-11-05T06:11:59.238Z,69.70
2022-11-05T06:14:28.179Z,69.80
2022-11-05T06:16:56.635Z,69.70
2022-11-05T06:19:25.108Z,69.70
2022-11-05T06:21:53.831Z,69.80
2022-11-05T06:24:23.932Z,69.80
2022-11-05T06:26:52.520Z,69.90
2022-11-05T06:29:20.830Z,70.40
2022-11-05T06:31:49.129Z,70.40
2022-11-05T06:34:18.183Z,70.40
2022-11-05T06:36:46.504Z,70.70
2022-11-05T06:39:14.920Z,71.00
2022-11-05T06:42:12.075Z,70.60
2022-11-05T06:44:33.947Z,69.90
2022-11-05T06:47:03.036Z,70.20
2022-11-05T06:49:31.239Z,70.10
2022-11-05T06:52:00.036Z,70.70
2022-11-05T06:54:29.202Z,71.50
2022-11-05T06:56:59.374Z,70.40
2022-11-05T06:59:28.978Z,70.20
2022-11-05T07:01:59.020Z,70.10
2022-11-05T07:04:27.453Z,70.10
2022-11-05T07:06:56.323Z,70.10
2022-11-05T07:09:25.060Z,70.00
2022-11-05T07:11:54.408Z,70.00
2022-11-05T07:14:24.529Z,69.80
2022-11-05T07:16:53.844Z,69.80
2022-11-05T07:19:23.294Z,69.80
2022-11-05T07:21:52.888Z,69.80
2022-11-05T07:24:21.948Z,69.80
2022-11-05T07:26:51.371Z,69.80
2022-11-05T07:29:19.850Z,69.80
2022-11-05T07:31:49.788Z,69.80
2022-11-05T07:34:18.246Z,69.90
2022-11-05T07:36:49.458Z,69.90
2022-11-05T07:39:18.075Z,69.80
2022-11-05T07:41:46.277Z,69.80
2022-11-05T07:44:14.673Z,70.00
2022-11-05T07:46:43.094Z,70.00
2022-11-05T07:49:12.603Z,70.10
2022-11-05T07:51:40.923Z,69.80
2022-11-05T07:54:09.182Z,70.00
2022-11-05T07:56:38.019Z,70.00
2022-11-05T07:59:07.103Z,69.90
2022-11-05T08:01:36.247Z,69.70
2022-11-05T08:04:05.087Z,69.60
2022-11-05T08:06:35.255Z,69.60
2022-11-05T08:09:03.625Z,69.70
2022-11-05T08:11:35.342Z,69.50
2022-11-05T08:14:06.940Z,69.50
2022-11-05T08:16:35.349Z,69.50
2022-11-05T08:19:04.707Z,69.60
2022-11-05T08:21:34.245Z,69.40
2022-11-05T08:24:02.597Z,69.50
2022-11-05T08:26:31.354Z,69.60
2022-11-05T08:29:00.637Z,69.60
2022-11-05T08:31:31.026Z,70.30
2022-11-05T08:34:02.494Z,69.60
2022-11-05T08:36:30.963Z,69.70
2022-11-05T08:39:00.618Z,69.80
2022-11-05T08:41:28.858Z,69.70
2022-11-05T08:43:57.076Z,69.70
2022-11-05T08:46:25.193Z,69.80
2022-11-05T08:48:53.491Z,69.70
2022-11-05T08:51:21.764Z,69.60
2022-11-05T08:53:49.915Z,69.60
2022-11-05T08:56:19.521Z,67.00
2022-11-05T08:58:47.627Z,66.00
2022-11-05T09:01:16.229Z,63.10
2022-11-05T09:03:44.472Z,62.30
2022-11-05T09:06:12.642Z,62.30
2022-11-05T09:08:40.830Z,63.20
2022-11-05T09:11:08.978Z,62.10
2022-11-05T09:13:38.983Z,63.00
2022-11-05T09:16:08.032Z,63.30
2022-11-05T09:18:36.363Z,63.10
2022-11-05T09:21:04.687Z,63.20
2022-11-05T09:23:32.886Z,63.40
2022-11-05T09:26:01.277Z,63.60
2022-11-05T09:28:31.789Z,64.00
2022-11-05T09:31:01.325Z,63.90
2022-11-05T09:33:29.564Z,64.40
2022-11-05T09:36:01.380Z,63.90
2022-11-05T09:38:30.607Z,63.80
2022-11-05T09:41:04.606Z,63.70
2022-11-05T09:43:39.886Z,63.70
2022-11-05T09:46:17.021Z,63.50
2022-11-05T09:48:49.493Z,63.80
2022-11-05T09:51:23.904Z,65.20
2022-11-05T09:53:55.430Z,65.10
2022-11-05T09:56:27.547Z,65.00
2022-11-05T09:59:02.401Z,65.30
2022-11-05T10:01:36.865Z,65.40
2022-11-05T10:04:11.514Z,68.10
2022-11-05T10:06:47.837Z,67.10
2022-11-05T10:09:24.295Z,66.20
2022-11-05T10:11:58.304Z,66.00
2022-11-05T10:14:31.998Z,66.30
2022-11-05T10:17:10.148Z,66.20
2022-11-05T10:19:44.506Z,66.30
2022-11-05T10:22:17.752Z,66.50
2022-11-05T10:24:49.135Z,66.40
2022-11-05T10:27:23.462Z,66.60
2022-11-05T10:29:52.090Z,67.20
2022-11-05T10:32:31.304Z,66.90
2022-11-05T10:35:02.773Z,66.90
2022-11-05T10:37:36.994Z,66.90
2022-11-05T10:40:17.139Z,67.10
2022-11-05T10:43:04.602Z,66.90
2022-11-05T10:45:46.288Z,67.00
2022-11-05T10:48:54.127Z,66.90
2022-11-05T10:51:22.443Z,67.20
2022-11-05T10:54:01.600Z,67.30
2022-11-05T10:56:34.003Z,67.20
2022-11-05T10:59:06.701Z,67.20
2022-11-05T11:01:38.437Z,67.20
2022-11-05T11:04:17.296Z,67.40
2022-11-05T11:06:50.905Z,67.20
2022-11-05T11:09:24.587Z,67.80
2022-11-05T11:12:01.998Z,67.50
2022-11-05T11:14:31.022Z,67.60
2022-11-05T11:17:19.261Z,67.40
2022-11-05T11:19:48.864Z,66.80
2022-11-05T11:22:22.626Z,67.20
2022-11-05T11:24:53.969Z,66.90
2022-11-05T11:27:29.049Z,66.60
2022-11-05T11:30:00.966Z,66.40
2022-11-05T11:32:35.414Z,66.30
2022-11-05T11:35:07.765Z,66.00
2022-11-05T11:37:42.134Z,66.10
2022-11-05T11:40:18.279Z,66.00
2022-11-05T11:42:49.416Z,65.10
2022-11-05T11:45:21.978Z,64.70
2022-11-05T11:47:51.198Z,64.40
2022-11-05T11:50:41.493Z,64.70
2022-11-05T11:53:29.572Z,65.00
2022-11-05T11:56:07.920Z,65.80
2022-11-05T11:58:45.812Z,65.80
2022-11-05T12:01:51.176Z,66.00
2022-11-05T12:04:35.973Z,66.20
2022-11-05T12:07:24.230Z,66.20
2022-11-05T12:10:16.239Z,66.40
2022-11-05T12:12:55.474Z,66.50
2022-11-05T12:15:35.913Z,66.80
2022-11-05T12:18:07.135Z,66.90
2022-11-05T12:21:06.003Z,67.10
2022-11-05T12:24:02.882Z,67.10
2022-11-05T12:26:43.002Z,67.20
2022-11-05T12:29:35.510Z,67.30
2022-11-05T12:32:48.231Z,67.50
2022-11-05T12:35:44.148Z,67.40
2022-11-05T12:38:34.778Z,67.60
2022-11-05T12:41:19.357Z,67.70
2022-11-05T12:44:10.344Z,67.80
2022-11-05T12:46:46.139Z,67.80
2022-11-05T12:49:33.181Z,67.90
2022-11-05T12:52:20.659Z,67.90
2022-11-05T12:55:04.898Z,68.50
2022-11-05T12:57:39.898Z,68.70
2022-11-05T13:00:18.327Z,68.90
2022-11-05T13:02:53.919Z,69.70
2022-11-05T13:05:31.877Z,71.60
2022-11-05T13:08:04.646Z,77.80
2022-11-05T13:10:38.067Z,89.10
2022-11-05T13:13:15.657Z,91.10
2022-11-05T13:15:52.081Z,93.90
2022-11-05T13:18:27.441Z,92.30
2022-11-05T13:20:57.369Z,90.70
2022-11-05T13:23:36.163Z,89.50
2022-11-05T13:26:16.977Z,89.00
2022-11-05T13:28:55.029Z,87.80
2022-11-05T13:31:28.536Z,87.30
2022-11-05T13:33:57.647Z,85.90
2022-11-05T13:36:49.246Z,84.50
2022-11-05T13:39:24.826Z,83.10
2022-11-05T13:42:15.374Z,83.30
2022-11-05T13:45:21.594Z,83.50
2022-11-05T13:48:26.997Z,69.40
2022-11-05T13:51:26.809Z,62.60
2022-11-05T13:54:23.270Z,64.40
2022-11-05T13:57:12.095Z,64.20
2022-11-05T14:00:04.458Z,65.30
2022-11-05T14:02:42.878Z,65.10
2022-11-05T14:05:33.117Z,65.60
2022-11-05T14:08:10.142Z,66.30
2022-11-05T14:10:41.315Z,66.80
2022-11-05T14:13:24.839Z,66.90
2022-11-05T14:16:04.090Z,67.00
2022-11-05T14:18:48.568Z,67.10
2022-11-05T14:21:50.110Z,66.90
2022-11-05T14:24:43.125Z,68.40
2022-11-05T14:27:45.048Z,68.20
2022-11-05T14:30:46.408Z,67.50
2022-11-05T14:33:38.675Z,67.50
2022-11-05T14:36:46.084Z,67.40
2022-11-05T14:39:27.227Z,67.80
2022-11-05T14:42:03.106Z,67.90
2022-11-05T14:44:34.765Z,68.00
2022-11-05T14:47:06.441Z,68.10
2022-11-05T14:49:39.163Z,68.00
2022-11-05T14:52:11.360Z,68.10
2022-11-05T14:54:46.131Z,68.00
2022-11-05T14:57:16.365Z,68.00
2022-11-05T15:00:02.996Z,68.00
2022-11-05T15:02:38.170Z,67.90
2022-11-05T15:05:49.850Z,67.90
2022-11-05T15:08:39.300Z,67.70
2022-11-05T15:11:18.036Z,68.30
2022-11-05T15:13:59.468Z,68.10
2022-11-05T15:16:34.349Z,67.80
2022-11-05T15:19:03.410Z,67.90
2022-11-05T15:21:37.456Z,67.70
2022-11-05T15:24:09.974Z,66.60
2022-11-05T15:26:44.754Z,66.70
2022-11-05T15:29:19.980Z,66.90
2022-11-05T15:31:50.242Z,66.50
2022-11-05T15:34:25.347Z,66.60
2022-11-05T15:36:57.492Z,67.00
2022-11-05T15:39:34.055Z,66.20
2022-11-05T15:42:07.183Z,65.40
2022-11-05T15:44:40.258Z,65.90
2022-11-05T15:47:22.080Z,65.60
2022-11-05T15:49:54.004Z,65.70
2022-11-05T15:52:25.404Z,66.00
2022-11-05T15:55:20.380Z,65.80
2022-11-05T15:57:51.682Z,65.70
2022-11-05T16:00:23.916Z,66.20
2022-11-05T16:02:56.562Z,66.50
2022-11-05T16:05:28.030Z,66.70
2022-11-05T16:08:00.073Z,66.90
2022-11-05T16:10:35.106Z,66.80
2022-11-05T16:13:31.933Z,67.10
2022-11-05T16:16:02.751Z,67.10
2022-11-05T16:18:37.774Z,67.30
2022-11-05T16:21:09.510Z,67.30
2022-11-05T16:23:52.910Z,67.20
2022-11-05T16:27:02.383Z,67.40
2022-11-05T16:29:29.878Z,67.40
2022-11-05T16:32:01.972Z,67.50
2022-11-05T16:34:38.053Z,67.40
2022-11-05T16:37:08.970Z,67.40
2022-11-05T16:39:37.176Z,67.40
2022-11-05T16:42:38.553Z,67.40
2022-11-05T16:45:08.728Z,67.30
2022-11-05T16:47:37.023Z,67.20
2022-11-05T16:50:20.212Z,67.40
2022-11-05T16:52:49.640Z,67.30
2022-11-05T16:55:18.878Z,67.60
2022-11-05T16:57:53.125Z,67.50
2022-11-05T17:00:23.233Z,68.20
2022-11-05T17:02:53.451Z,67.50
2022-11-05T17:05:26.431Z,67.60
2022-11-05T17:07:56.532Z,67.60
2022-11-05T17:10:26.817Z,67.60
2022-11-05T17:12:57.565Z,67.60
2022-11-05T17:15:30.996Z,67.60
2022-11-05T17:18:00.516Z,67.50
2022-11-05T17:20:40.451Z,67.70
2022-11-05T17:23:13.330Z,67.70
2022-11-05T17:25:43.646Z,67.90
2022-11-05T17:28:14.656Z,67.50
2022-11-05T17:30:51.681Z,67.20
2022-11-05T17:33:22.933Z,67.10
2022-11-05T17:35:52.339Z,66.30
2022-11-05T17:38:22.792Z,66.60
2022-11-05T17:40:54.510Z,66.60
2022-11-05T17:43:24.561Z,66.90
2022-11-05T17:45:55.184Z,67.10
2022-11-05T17:48:26.587Z,67.00
2022-11-05T17:50:57.477Z,67.20
2022-11-05T17:53:26.955Z,67.30
2022-11-05T17:55:57.703Z,67.50
2022-11-05T17:58:28.450Z,67.30
2022-11-05T18:01:00.391Z,67.40
2022-11-05T18:08:07.839Z,67.40
2022-11-05T18:10:38.756Z,67.50
2022-11-05T18:13:08.072Z,67.60
2022-11-05T18:15:41.269Z,68.70
2022-11-05T18:18:10.615Z,67.20
2022-11-05T18:20:39.832Z,67.40
2022-11-05T18:23:08.410Z,67.70
2022-11-05T18:25:37.217Z,67.40
2022-11-05T18:28:05.740Z,67.40
2022-11-05T18:30:35.446Z,67.60
2022-11-05T18:33:05.562Z,67.60
2022-11-05T18:35:34.536Z,67.70
2022-11-05T18:38:03.460Z,67.60
2022-11-05T18:40:32.237Z,67.70
2022-11-05T18:43:00.920Z,67.70
2022-11-05T18:45:30.122Z,67.80
2022-11-05T18:48:00.373Z,68.00
2022-11-05T18:50:31.305Z,67.80
2022-11-05T18:53:00.242Z,70.20
2022-11-05T18:55:28.914Z,68.60
2022-11-05T18:57:57.875Z,68.20
2022-11-05T19:00:28.039Z,67.90
2022-11-05T19:02:56.887Z,67.90
2022-11-05T19:05:30.077Z,68.10
2022-11-05T19:08:00.876Z,68.50
2022-11-05T19:10:30.300Z,68.60
2022-11-05T19:13:02.063Z,69.10
2022-11-05T19:15:30.976Z,69.40
2022-11-05T19:17:59.797Z,69.10
2022-11-05T19:20:36.657Z,72.50
2022-11-05T19:23:11.784Z,70.40
2022-11-05T19:25:48.589Z,72.60
2022-11-05T19:28:17.804Z,72.00
2022-11-05T19:30:46.802Z,70.40
2022-11-05T19:33:15.330Z,69.80
2022-11-05T19:35:44.161Z,68.90
2022-11-05T19:38:14.658Z,69.40
2022-11-05T19:40:44.121Z,69.40
2022-11-05T19:43:13.017Z,69.20
2022-11-05T19:45:44.918Z,69.20
2022-11-05T19:48:19.104Z,69.10
2022-11-05T19:50:49.698Z,69.10
2022-11-05T19:53:19.554Z,69.20
2022-11-05T19:55:48.140Z,69.20
2022-11-05T19:58:17.446Z,69.20
2022-11-05T20:00:46.345Z,69.10
2022-11-05T20:03:14.793Z,69.20
2022-11-05T20:05:43.345Z,69.20
2022-11-05T20:08:12.093Z,69.20
2022-11-05T20:10:42.189Z,69.20
2022-11-05T20:13:13.221Z,69.20
2022-11-05T20:15:46.697Z,69.10
2022-11-05T20:18:16.732Z,69.10
2022-11-05T20:20:45.847Z,69.00
2022-11-05T20:23:14.987Z,69.10
2022-11-05T20:25:44.931Z,69.10
2022-11-05T20:28:13.847Z,68.40
2022-11-05T20:30:42.565Z,69.20
2022-11-05T20:33:11.133Z,69.10
2022-11-05T20:35:40.885Z,68.90
2022-11-05T20:38:09.728Z,69.10
2022-11-05T20:40:41.953Z,69.30
2022-11-05T20:43:11.999Z,69.10
2022-11-05T20:45:40.344Z,70.30
2022-11-05T20:48:08.780Z,70.60
2022-11-05T20:50:41.834Z,70.10
2022-11-05T20:53:10.520Z,69.90
2022-11-05T20:55:44.118Z,69.70
2022-11-05T20:58:15.491Z,69.60
2022-11-05T21:00:52.026Z,69.50
2022-11-05T21:03:21.640Z,69.50
2022-11-05T21:05:54.412Z,69.30
2022-11-05T21:08:24.056Z,69.20
2022-11-05T21:10:52.505Z,69.10
2022-11-05T21:13:22.860Z,69.20
2022-11-05T21:15:53.213Z,69.00
2022-11-05T21:18:25.420Z,68.90
2022-11-05T21:20:54.721Z,68.80
2022-11-05T21:23:23.396Z,69.00
2022-11-05T21:25:53.964Z,68.90
2022-11-05T21:28:24.288Z,68.90
2022-11-05T21:30:52.923Z,69.00
2022-11-05T21:33:21.434Z,69.00
2022-11-05T21:35:50.252Z,68.90
2022-11-05T21:38:20.584Z,69.00
2022-11-05T21:40:49.545Z,69.00
2022-11-05T21:43:18.055Z,69.00
2022-11-05T21:45:47.580Z,69.40
2022-11-05T21:48:16.072Z,69.60
2022-11-05T21:51:00.927Z,69.40
2022-11-05T21:53:47.040Z,69.00
2022-11-05T21:56:37.562Z,69.40
2022-11-05T21:59:23.690Z,69.40
2022-11-05T22:02:01.252Z,71.20
2022-11-05T22:04:29.899Z,72.60
2022-11-05T22:06:58.591Z,74.10
2022-11-05T22:09:27.688Z,75.90
2022-11-05T22:11:56.766Z,73.90
2022-11-05T22:14:26.151Z,73.50
2022-11-05T22:16:57.154Z,73.30
2022-11-05T22:19:26.329Z,72.60
2022-11-05T22:21:54.967Z,74.70
2022-11-05T22:24:24.596Z,73.50
2022-11-05T22:26:53.470Z,73.30
2022-11-05T22:29:22.557Z,73.20
2022-11-05T22:31:51.049Z,73.30
2022-11-05T22:34:21.263Z,73.10
2022-11-05T22:36:51.806Z,73.20
2022-11-05T22:39:20.563Z,73.00
2022-11-05T22:41:49.636Z,73.80
2022-11-05T22:44:17.900Z,79.00
2022-11-05T22:46:46.111Z,77.40
2022-11-05T22:49:14.385Z,76.20
2022-11-05T22:51:44.101Z,76.50
2022-11-05T22:54:12.777Z,76.00
2022-11-05T22:56:43.336Z,75.40
2022-11-05T22:59:15.087Z,76.50
2022-11-05T23:01:45.126Z,75.80
2022-11-05T23:04:14.388Z,72.10
2022-11-05T23:07:01.938Z,72.70
2022-11-05T23:09:51.144Z,71.50
2022-11-05T23:12:32.929Z,71.80
2022-11-05T23:18:03.257Z,72.20
2022-11-05T23:20:49.036Z,72.50
2022-11-05T23:23:36.880Z,72.30
2022-11-05T23:26:25.598Z,72.40
2022-11-05T23:28:53.703Z,72.10
2022-11-05T23:31:39.646Z,72.30
2022-11-05T23:34:07.931Z,72.20
2022-11-05T23:36:53.531Z,72.40
2022-11-05T23:39:22.985Z,71.00
2022-11-05T23:42:08.900Z,71.70
2022-11-05T23:44:54.404Z,71.20
2022-11-05T23:47:40.278Z,70.70
2022-11-05T23:50:09.219Z,70.20
2022-11-05T23:52:37.383Z,70.60
2022-11-05T23:55:07.738Z,70.10
2022-11-05T23:57:36.898Z,69.70
